Time;durP1;ratioP1;P1;durP2;ratioP2;P2;SDS_P1;SDS_P2;PMS_P1;PMS_P2;Temp;Humidity;BMP_temperature;BMP_pressure;BME280_temperature;BME280_humidity;BME280_pressure;Samples;Min_cycle;Max_cycle;Signal;HPM_P1;HPM_P2
2023/12/13 00:00:54;;;;;;;7.70;7.40;;;8.40;99.90;;;;;;5028724;28;20287;-72
2023/12/13 00:03:22;;;;;;;8.10;7.70;;;8.30;99.90;;;;;;5031561;28;20250;-71
2023/12/13 00:05:49;;;;;;;9.37;8.97;;;8.40;99.90;;;;;;5037950;28;20226;-72
2023/12/13 00:08:19;;;;;;;8.30;7.90;;;8.40;99.90;;;;;;5032576;28;20203;-72
2023/12/13 00:10:46;;;;;;;8.30;7.90;;;8.30;99.90;;;;;;5026780;28;20204;-71
2023/12/13 00:13:14;;;;;;;8.37;7.97;;;8.40;99.90;;;;;;5024846;28;20228;-71
2023/12/13 00:15:41;;;;;;;8.50;8.10;;;8.30;99.90;;;;;;5037444;28;20196;-72
2023/12/13 00:18:08;;;;;;;8.63;8.23;;;8.40;99.90;;;;;;5028981;28;20204;-72
2023/12/13 00:20:36;;;;;;;8.73;8.33;;;8.40;99.90;;;;;;5028015;28;20204;-72
2023/12/13 00:23:05;;;;;;;8.50;8.10;;;8.40;99.90;;;;;;5032152;28;20188;-71
2023/12/13 00:25:32;;;;;;;8.73;8.33;;;8.40;99.90;;;;;;5028301;28;20275;-70
2023/12/13 00:27:59;;;;;;;8.50;8.10;;;8.40;99.90;;;;;;5021644;28;20185;-65
2023/12/13 00:30:26;;;;;;;8.40;8.00;;;8.40;99.90;;;;;;5027199;28;20311;-66
2023/12/13 00:32:53;;;;;;;8.40;8.00;;;8.40;99.90;;;;;;5029850;28;20572;-66
2023/12/13 00:35:20;;;;;;;8.60;8.20;;;8.40;99.90;;;;;;5034682;28;20273;-67
2023/12/13 00:37:48;;;;;;;8.50;8.10;;;8.30;99.90;;;;;;5029493;28;20203;-71
2023/12/13 00:40:15;;;;;;;8.50;8.10;;;8.30;99.90;;;;;;5027663;28;20289;-66
2023/12/13 00:42:42;;;;;;;8.57;8.17;;;8.40;99.90;;;;;;5019107;28;20642;-66
2023/12/13 00:45:09;;;;;;;8.43;8.03;;;8.30;99.90;;;;;;5029714;28;20265;-66
2023/12/13 00:47:37;;;;;;;8.60;8.20;;;8.30;99.90;;;;;;5031246;28;20711;-66
2023/12/13 00:50:06;;;;;;;8.50;8.10;;;8.30;99.90;;;;;;5028964;28;20208;-66
2023/12/13 00:52:33;;;;;;;8.50;8.10;;;8.20;99.90;;;;;;5029031;28;20208;-66
2023/12/13 00:55:01;;;;;;;8.70;8.30;;;8.20;99.90;;;;;;5029157;28;20189;-66
2023/12/13 00:57:28;;;;;;;8.67;8.27;;;8.20;99.90;;;;;;5028762;28;20671;-67
2023/12/13 00:59:55;;;;;;;8.83;8.43;;;8.20;99.90;;;;;;5042542;28;20643;-66
2023/12/13 01:02:22;;;;;;;9.00;8.60;;;8.20;99.90;;;;;;5035134;28;20285;-66
2023/12/13 01:04:49;;;;;;;9.00;8.60;;;8.20;99.90;;;;;;5026629;28;20692;-66
2023/12/13 01:07:16;;;;;;;8.60;8.20;;;8.20;99.90;;;;;;5045616;28;20197;-66
2023/12/13 01:09:43;;;;;;;9.00;8.60;;;8.20;99.90;;;;;;5020883;28;20219;-66
2023/12/13 01:12:13;;;;;;;8.70;8.30;;;8.20;99.90;;;;;;5031813;28;20277;-66
2023/12/13 01:14:40;;;;;;;8.70;8.30;;;8.20;99.90;;;;;;5024925;28;20188;-66
2023/12/13 01:17:07;;;;;;;8.47;8.07;;;8.20;99.90;;;;;;5015021;28;20557;-66
2023/12/13 01:19:34;;;;;;;8.53;8.13;;;8.20;99.90;;;;;;5022107;28;20228;-66
2023/12/13 01:22:02;;;;;;;8.63;8.23;;;8.20;99.90;;;;;;5034125;28;20224;-67
2023/12/13 01:24:29;;;;;;;8.23;7.83;;;8.20;99.90;;;;;;5026768;28;20196;-67
2023/12/13 01:26:57;;;;;;;8.30;7.90;;;8.20;99.90;;;;;;5029959;28;20200;-68
2023/12/13 01:29:24;;;;;;;8.17;7.77;;;8.10;99.90;;;;;;5035503;28;20188;-68
2023/12/13 01:31:51;;;;;;;8.10;7.70;;;8.10;99.90;;;;;;5027233;28;20196;-67
2023/12/13 01:34:19;;;;;;;7.87;7.57;;;8.10;99.90;;;;;;5027560;28;20204;-67
2023/12/13 01:36:46;;;;;;;7.80;7.50;;;8.00;99.90;;;;;;5041100;28;20553;-67
2023/12/13 01:39:15;;;;;;;7.90;7.57;;;8.00;99.90;;;;;;5023195;28;20250;-67
2023/12/13 01:41:43;;;;;;;7.57;7.27;;;8.00;99.90;;;;;;5020531;28;20548;-67
2023/12/13 01:44:10;;;;;;;7.50;7.20;;;7.90;99.90;;;;;;5034676;28;20199;-67
2023/12/13 01:46:38;;;;;;;7.50;7.20;;;8.00;99.90;;;;;;5029480;28;20203;-68
2023/12/13 01:49:06;;;;;;;7.30;7.00;;;7.90;99.90;;;;;;5009961;28;20258;-68
2023/12/13 01:51:35;;;;;;;7.30;7.00;;;7.90;99.90;;;;;;5027022;28;20216;-69
2023/12/13 01:54:03;;;;;;;7.80;7.50;;;7.80;99.90;;;;;;5038218;28;20557;-64
2023/12/13 01:56:31;;;;;;;7.53;7.23;;;7.70;99.90;;;;;;5030969;28;20204;-64
2023/12/13 01:58:58;;;;;;;7.40;7.10;;;7.70;99.90;;;;;;5037938;28;20258;-66
2023/12/13 02:01:26;;;;;;;7.50;7.20;;;7.70;99.90;;;;;;5031962;28;20216;-66
2023/12/13 02:03:53;;;;;;;7.30;7.00;;;7.70;99.90;;;;;;5034427;28;20214;-66
2023/12/13 02:06:20;;;;;;;7.30;7.00;;;7.60;99.90;;;;;;5044347;28;20191;-66
2023/12/13 02:08:47;;;;;;;7.30;7.00;;;7.60;99.90;;;;;;5025626;28;20256;-71
2023/12/13 02:11:14;;;;;;;7.30;7.00;;;7.60;99.90;;;;;;5038816;28;20245;-71
2023/12/13 02:13:42;;;;;;;7.40;7.10;;;7.60;99.90;;;;;;5030930;28;20619;-71
2023/12/13 02:16:09;;;;;;;7.10;6.80;;;7.70;99.90;;;;;;5029611;28;20231;-72
2023/12/13 02:18:36;;;;;;;7.03;6.73;;;7.60;99.90;;;;;;5023545;28;20223;-74
2023/12/13 02:21:03;;;;;;;7.77;7.47;;;7.60;99.90;;;;;;5033372;28;20234;-70
2023/12/13 02:23:30;;;;;;;7.33;7.03;;;7.50;99.90;;;;;;5046901;28;20187;-71
2023/12/13 02:25:59;;;;;;;7.20;6.90;;;7.60;99.90;;;;;;5033998;28;20192;-70
2023/12/13 02:28:28;;;;;;;7.30;7.00;;;7.60;99.90;;;;;;5035968;28;20589;-72
2023/12/13 02:30:56;;;;;;;7.10;6.80;;;7.60;99.90;;;;;;5036858;28;20284;-71
2023/12/13 02:33:25;;;;;;;7.20;6.90;;;7.70;99.90;;;;;;5040530;28;20230;-71
2023/12/13 02:35:56;;;;;;;7.20;6.90;;;7.70;99.90;;;;;;5042316;28;20286;-70
2023/12/13 02:38:23;;;;;;;7.50;7.20;;;7.70;99.90;;;;;;5042380;28;20200;-70
2023/12/13 02:40:50;;;;;;;7.30;7.00;;;7.70;99.90;;;;;;5021549;28;20303;-71
2023/12/13 02:43:17;;;;;;;7.30;7.00;;;7.70;99.90;;;;;;5038893;28;20711;-71
2023/12/13 02:45:44;;;;;;;7.50;7.20;;;7.70;99.90;;;;;;5033279;28;20315;-70
2023/12/13 02:48:10;;;;;;;7.40;7.10;;;7.60;99.90;;;;;;5035575;28;20201;-81
2023/12/13 02:50:38;;;;;;;7.53;7.23;;;7.60;99.90;;;;;;5039547;28;20199;-72
2023/12/13 02:53:06;;;;;;;7.50;7.20;;;7.60;99.90;;;;;;5030259;28;20303;-71
2023/12/13 02:55:33;;;;;;;7.70;7.40;;;7.60;99.90;;;;;;5037223;28;20205;-70
2023/12/13 02:58:00;;;;;;;7.60;7.30;;;7.70;99.90;;;;;;5035439;28;21097;-72
2023/12/13 03:04:27;;;;;;;7.40;7.10;;;7.70;99.90;;;;;;5023342;28;20230;-72
2023/12/13 03:06:54;;;;;;;7.17;6.87;;;7.80;99.90;;;;;;5023740;28;20189;-71
2023/12/13 03:09:21;;;;;;;7.23;6.93;;;7.80;99.90;;;;;;5027468;28;20189;-71
2023/12/13 03:11:48;;;;;;;7.50;7.20;;;7.80;99.90;;;;;;5021287;28;20233;-71
2023/12/13 03:14:15;;;;;;;7.50;7.20;;;7.80;99.90;;;;;;5032055;28;20262;-71
2023/12/13 03:16:43;;;;;;;7.40;7.10;;;7.80;99.90;;;;;;5035034;28;20259;-71
2023/12/13 03:19:10;;;;;;;7.53;7.23;;;7.80;99.90;;;;;;5030709;28;20250;-64
2023/12/13 03:21:37;;;;;;;7.70;7.40;;;7.80;99.90;;;;;;5032703;28;20575;-66
2023/12/13 03:24:04;;;;;;;7.20;6.90;;;7.80;99.90;;;;;;5023656;28;20696;-66
2023/12/13 03:26:31;;;;;;;6.80;6.50;;;7.80;99.90;;;;;;5023587;28;20196;-68
2023/12/13 03:28:58;;;;;;;6.53;6.23;;;7.90;99.90;;;;;;5026677;28;20195;-66
2023/12/13 03:31:25;;;;;;;6.60;6.30;;;7.90;99.90;;;;;;5037358;28;20204;-67
2023/12/13 03:33:54;;;;;;;6.50;6.20;;;7.90;99.90;;;;;;5026492;28;20268;-68
2023/12/13 03:36:22;;;;;;;6.50;6.20;;;8.00;99.90;;;;;;5030379;28;20200;-67
2023/12/13 03:38:49;;;;;;;6.30;6.00;;;8.00;99.90;;;;;;5035115;28;20261;-68
2023/12/13 03:41:16;;;;;;;6.30;6.00;;;8.00;99.90;;;;;;5007628;28;20363;-68
2023/12/13 03:43:43;;;;;;;6.60;6.30;;;7.90;99.90;;;;;;5032736;28;20280;-68
2023/12/13 03:46:10;;;;;;;6.50;6.20;;;7.90;99.90;;;;;;5034558;28;20216;-68
2023/12/13 03:48:38;;;;;;;6.40;6.10;;;8.00;99.90;;;;;;5034568;28;20188;-68
2023/12/13 03:51:05;;;;;;;6.20;5.90;;;7.90;99.90;;;;;;5038062;28;20286;-68
2023/12/13 03:53:32;;;;;;;6.00;5.70;;;7.90;99.90;;;;;;5036344;28;20270;-65
2023/12/13 03:55:59;;;;;;;6.30;6.00;;;8.00;99.90;;;;;;5029641;28;20196;-68
2023/12/13 03:58:26;;;;;;;5.80;5.60;;;8.00;99.90;;;;;;5034268;28;20287;-68
2023/12/13 04:00:53;;;;;;;6.20;5.90;;;7.90;99.90;;;;;;5017979;28;20221;-67
2023/12/13 04:03:20;;;;;;;6.20;5.90;;;8.00;99.90;;;;;;5020919;28;20200;-66
2023/12/13 04:05:47;;;;;;;6.30;6.00;;;8.00;99.90;;;;;;5045121;28;20192;-65
2023/12/13 04:08:14;;;;;;;6.40;6.10;;;8.00;99.90;;;;;;5018846;28;20252;-65
2023/12/13 04:10:41;;;;;;;6.60;6.30;;;8.00;99.90;;;;;;5037476;28;20211;-65
2023/12/13 04:13:09;;;;;;;6.47;6.17;;;8.00;99.90;;;;;;5040300;28;20313;-66
2023/12/13 04:15:36;;;;;;;6.60;6.30;;;8.00;99.90;;;;;;5047325;28;20195;-65
2023/12/13 04:18:03;;;;;;;6.60;6.30;;;8.00;99.90;;;;;;5015281;28;20253;-68
2023/12/13 04:20:30;;;;;;;6.20;5.90;;;7.90;99.90;;;;;;5022944;28;20531;-68
2023/12/13 04:22:57;;;;;;;5.70;5.50;;;7.90;99.90;;;;;;5037555;28;20522;-68
2023/12/13 04:25:24;;;;;;;6.10;5.80;;;7.90;99.90;;;;;;5029649;28;20192;-68
2023/12/13 04:27:51;;;;;;;6.00;5.70;;;7.90;99.90;;;;;;5057992;28;20855;-70
2023/12/13 04:30:18;;;;;;;5.70;5.50;;;7.90;99.90;;;;;;5039662;28;20183;-71
2023/12/13 04:32:45;;;;;;;6.00;5.70;;;7.90;99.90;;;;;;5024713;28;20252;-72
2023/12/13 04:35:12;;;;;;;5.80;5.60;;;7.90;99.90;;;;;;5028462;28;20196;-72
2023/12/13 04:37:39;;;;;;;5.60;5.40;;;7.90;99.90;;;;;;5027808;28;20208;-70
2023/12/13 04:40:07;;;;;;;5.53;5.33;;;8.00;99.90;;;;;;5034023;28;20198;-72
2023/12/13 04:42:35;;;;;;;5.50;5.30;;;7.90;99.90;;;;;;5036658;28;20591;-72
2023/12/13 04:45:03;;;;;;;5.60;5.40;;;8.00;99.90;;;;;;5034104;28;20641;-71
2023/12/13 04:47:30;;;;;;;5.80;5.60;;;8.00;99.90;;;;;;5031626;28;20203;-70
2023/12/13 04:49:57;;;;;;;6.20;5.90;;;8.00;99.90;;;;;;5025715;28;20730;-70
2023/12/13 04:52:25;;;;;;;6.10;5.80;;;8.00;99.90;;;;;;5023662;28;20208;-72
2023/12/13 04:54:52;;;;;;;5.70;5.50;;;8.00;99.90;;;;;;5026838;28;20205;-71
2023/12/13 04:57:22;;;;;;;6.10;5.80;;;8.00;99.90;;;;;;5032954;28;20668;-72
2023/12/13 04:59:49;;;;;;;6.20;5.90;;;8.00;99.90;;;;;;5035812;28;20196;-72
2023/12/13 05:02:17;;;;;;;6.00;5.70;;;7.90;99.90;;;;;;5024039;28;20587;-71
2023/12/13 05:04:44;;;;;;;6.10;5.80;;;7.90;99.90;;;;;;5023729;28;20206;-72
2023/12/13 05:07:12;;;;;;;5.77;5.57;;;7.90;99.90;;;;;;5035318;28;20196;-71
2023/12/13 05:09:39;;;;;;;5.87;5.67;;;7.80;99.90;;;;;;5033986;28;20670;-67
2023/12/13 05:12:06;;;;;;;6.00;5.70;;;7.90;99.90;;;;;;5016811;28;20219;-67
2023/12/13 05:14:33;;;;;;;6.00;5.70;;;7.80;99.90;;;;;;5031662;28;20196;-67
2023/12/13 05:17:00;;;;;;;5.80;5.60;;;7.80;99.90;;;;;;5031967;28;20198;-67
2023/12/13 05:19:27;;;;;;;6.10;5.80;;;7.80;99.90;;;;;;5035062;28;20208;-65
2023/12/13 05:21:54;;;;;;;6.30;6.00;;;7.90;99.90;;;;;;5022099;28;20203;-65
2023/12/13 05:24:21;;;;;;;6.00;5.70;;;7.90;99.90;;;;;;5025840;28;20192;-65
2023/12/13 05:26:48;;;;;;;5.70;5.50;;;7.80;99.90;;;;;;5015789;28;20278;-65
2023/12/13 05:29:15;;;;;;;5.70;5.50;;;7.80;99.90;;;;;;5028239;28;20253;-65
2023/12/13 05:31:42;;;;;;;5.50;5.30;;;7.80;99.90;;;;;;5010334;28;20200;-67
2023/12/13 05:34:09;;;;;;;5.70;5.50;;;7.90;99.90;;;;;;5020620;28;20268;-67
2023/12/13 05:36:36;;;;;;;5.30;5.10;;;7.90;99.90;;;;;;5022476;28;20199;-67
2023/12/13 05:39:04;;;;;;;5.60;5.40;;;7.80;99.90;;;;;;5018259;28;20541;-71
2023/12/13 05:41:31;;;;;;;5.50;5.30;;;7.90;99.90;;;;;;5019000;28;20219;-71
2023/12/13 05:43:58;;;;;;;5.70;5.50;;;7.90;99.90;;;;;;5014596;28;20189;-71
2023/12/13 05:46:25;;;;;;;5.50;5.30;;;8.00;99.90;;;;;;5019945;28;20281;-71
2023/12/13 05:48:52;;;;;;;5.60;5.40;;;8.00;99.90;;;;;;5018320;28;20220;-70
2023/12/13 05:51:19;;;;;;;5.70;5.50;;;8.00;99.90;;;;;;5020395;28;20272;-71
2023/12/13 05:53:46;;;;;;;5.90;5.70;;;8.00;23.50;;;;;;5017924;28;20279;-71
2023/12/13 05:56:13;;;;;;;5.50;5.30;;;8.00;1.00;;;;;;5019875;28;20274;-71
2023/12/13 05:58:40;;;;;;;5.30;5.10;;;8.00;1.00;;;;;;5033323;28;20720;-70
2023/12/13 06:01:07;;;;;;;5.63;5.43;;;8.00;1.00;;;;;;5020834;28;20201;-70
2023/12/13 06:03:34;;;;;;;5.57;5.37;;;8.00;99.90;;;;;;5020780;28;20207;-71
2023/12/13 06:06:01;;;;;;;5.80;5.60;;;8.10;99.90;;;;;;5033615;28;20653;-71
2023/12/13 06:08:28;;;;;;;5.60;5.40;;;8.10;1.00;;;;;;5025539;28;20211;-71
2023/12/13 06:10:57;;;;;;;5.50;5.30;;;8.10;1.00;;;;;;5026060;28;20329;-70
2023/12/13 06:13:25;;;;;;;6.00;5.70;;;8.10;99.90;;;;;;5025792;28;20315;-70
2023/12/13 06:15:52;;;;;;;6.00;5.70;;;8.10;1.00;;;;;;5023466;28;20220;-70
2023/12/13 06:18:19;;;;;;;5.77;5.57;;;8.20;99.90;;;;;;5032975;28;20251;-71
2023/12/13 06:20:46;;;;;;;6.00;5.70;;;8.20;1.00;;;;;;5023453;28;20196;-69
2023/12/13 06:23:13;;;;;;;6.00;5.70;;;8.20;99.90;;;;;;5025050;28;20595;-70
2023/12/13 06:25:39;;;;;;;6.17;5.87;;;8.20;99.90;;;;;;5026477;28;20199;-70
2023/12/13 06:28:07;;;;;;;6.00;5.70;;;8.20;48.80;;;;;;5028097;28;20196;-70
2023/12/13 06:30:34;;;;;;;6.50;6.20;;;8.30;1.00;;;;;;5025397;28;20193;-70
2023/12/13 06:33:01;;;;;;;6.40;6.10;;;8.20;1.00;;;;;;5025506;28;20205;-70
2023/12/13 06:35:28;;;;;;;6.50;6.20;;;8.30;1.00;;;;;;5027327;28;20291;-71
2023/12/13 06:37:55;;;;;;;6.50;6.20;;;8.30;1.00;;;;;;5018903;28;20205;-70
2023/12/13 06:40:23;;;;;;;6.50;6.20;;;8.30;1.00;;;;;;5031627;28;20566;-70
2023/12/13 06:42:50;;;;;;;6.60;6.30;;;8.30;1.00;;;;;;5011692;28;20257;-70
2023/12/13 06:45:18;;;;;;;6.53;6.23;;;8.30;1.00;;;;;;5028549;28;20568;-71
2023/12/13 06:47:45;;;;;;;7.00;6.70;;;8.30;1.00;;;;;;5043207;28;20275;-66
2023/12/13 06:50:12;;;;;;;7.00;6.70;;;8.20;1.00;;;;;;5042794;28;20279;-66
2023/12/13 06:52:39;;;;;;;7.40;7.10;;;8.20;1.00;;;;;;5031859;28;20588;-66
2023/12/13 06:55:07;;;;;;;7.10;6.80;;;8.20;1.00;;;;;;5038315;28;20200;-66
2023/12/13 06:57:33;;;;;;;7.10;6.80;;;8.20;1.00;;;;;;5046405;28;20215;-66
2023/12/13 07:00:03;;;;;;;7.60;7.30;;;8.20;1.00;;;;;;5035281;28;20192;-66
2023/12/13 07:02:31;;;;;;;7.40;7.10;;;8.10;1.00;;;;;;5013424;28;20212;-69
2023/12/13 07:04:58;;;;;;;7.13;6.83;;;8.10;1.00;;;;;;5043686;28;20664;-67
2023/12/13 07:07:25;;;;;;;7.20;6.90;;;8.20;1.00;;;;;;5036819;28;20204;-67
2023/12/13 07:09:53;;;;;;;7.20;6.90;;;8.20;1.00;;;;;;5029552;28;20208;-67
2023/12/13 07:12:20;;;;;;;7.00;6.70;;;8.10;1.00;;;;;;5017191;28;20256;-67
2023/12/13 07:14:47;;;;;;;7.10;6.80;;;8.10;1.00;;;;;;5020171;28;20675;-67
2023/12/13 07:17:14;;;;;;;7.17;6.87;;;8.20;1.00;;;;;;5025446;28;20236;-67
2023/12/13 07:19:41;;;;;;;7.10;6.80;;;8.20;1.00;;;;;;5012430;28;20675;-67
2023/12/13 07:22:08;;;;;;;7.10;6.80;;;8.20;1.00;;;;;;5029553;28;20518;-67
2023/12/13 07:24:36;;;;;;;7.40;7.10;;;8.20;1.00;;;;;;5033856;28;20184;-67
2023/12/13 07:27:03;;;;;;;7.00;6.70;;;8.20;1.00;;;;;;5029162;28;20656;-67
2023/12/13 07:29:32;;;;;;;7.27;6.97;;;8.20;1.00;;;;;;5015040;28;20198;-72
2023/12/13 07:31:59;;;;;;;7.20;6.90;;;8.20;1.00;;;;;;5032956;28;20652;-72
2023/12/13 07:34:26;;;;;;;7.30;7.00;;;8.20;1.00;;;;;;5030350;28;20227;-72
2023/12/13 07:36:54;;;;;;;7.20;6.90;;;8.20;1.00;;;;;;5026106;28;20189;-72
2023/12/13 07:39:21;;;;;;;7.40;7.10;;;8.30;1.00;;;;;;5022034;28;20200;-72
2023/12/13 07:41:48;;;;;;;7.80;7.50;;;8.30;1.00;;;;;;5024916;28;20572;-72
2023/12/13 07:44:16;;;;;;;7.80;7.50;;;8.40;1.00;;;;;;5013228;28;20196;-71
2023/12/13 07:46:43;;;;;;;7.70;7.40;;;8.30;1.00;;;;;;5022931;28;20208;-72
2023/12/13 07:49:10;;;;;;;7.80;7.50;;;8.40;1.00;;;;;;5025816;28;20683;-74
2023/12/13 07:51:37;;;;;;;8.27;7.87;;;8.40;1.00;;;;;;5027621;28;20205;-72
2023/12/13 07:54:04;;;;;;;8.20;7.80;;;8.40;1.00;;;;;;5029248;28;20211;-72
2023/12/13 07:56:31;;;;;;;7.77;7.47;;;8.40;1.00;;;;;;5030197;28;20188;-72
2023/12/13 07:58:58;;;;;;;8.20;7.80;;;8.30;1.00;;;;;;5011680;28;20247;-72
2023/12/13 08:01:27;;;;;;;8.27;7.87;;;8.40;1.00;;;;;;5028977;28;20199;-67
2023/12/13 08:03:55;;;;;;;8.07;7.67;;;8.50;1.00;;;;;;5028372;28;20184;-70
2023/12/13 08:06:22;;;;;;;7.90;7.60;;;8.50;1.00;;;;;;5028428;28;20254;-68
2023/12/13 08:08:51;;;;;;;7.77;7.47;;;8.50;1.00;;;;;;5029618;28;20251;-67
2023/12/13 08:11:18;;;;;;;7.73;7.43;;;8.50;1.00;;;;;;5027813;28;20200;-68
2023/12/13 08:13:45;;;;;;;8.13;7.73;;;8.50;1.00;;;;;;5043550;28;20684;-67
2023/12/13 08:16:12;;;;;;;7.60;7.30;;;8.50;1.00;;;;;;5024095;28;20527;-67
2023/12/13 08:18:39;;;;;;;7.73;7.43;;;8.40;1.00;;;;;;5023379;28;20660;-67
2023/12/13 08:21:07;;;;;;;7.50;7.20;;;8.40;1.00;;;;;;5029857;28;20196;-68
2023/12/13 08:23:34;;;;;;;7.30;7.00;;;8.40;1.00;;;;;;5027739;28;20282;-68
2023/12/13 08:26:01;;;;;;;7.33;7.03;;;8.40;1.00;;;;;;5029191;28;20212;-67
2023/12/13 08:28:29;;;;;;;7.30;7.00;;;8.50;1.00;;;;;;5014198;28;20208;-67
2023/12/13 08:30:56;;;;;;;7.30;7.00;;;8.50;1.00;;;;;;5027741;28;20192;-67
2023/12/13 08:33:44;;;;;;;7.00;6.70;;;8.50;1.00;;;;;;5015578;28;20204;-68
2023/12/13 08:36:12;;;;;;;7.30;7.00;;;8.50;1.00;;;;;;5028846;28;20192;-68
2023/12/13 08:38:40;;;;;;;7.27;6.97;;;8.50;1.00;;;;;;5027561;28;20219;-67
2023/12/13 08:41:08;;;;;;;7.40;7.10;;;8.60;1.00;;;;;;5029052;28;20242;-68
2023/12/13 08:43:35;;;;;;;7.30;7.00;;;8.60;1.00;;;;;;5014610;28;20209;-68
2023/12/13 08:46:03;;;;;;;7.27;6.97;;;8.60;1.00;;;;;;5028058;28;20707;-68
2023/12/13 08:48:30;;;;;;;7.20;6.90;;;8.70;1.00;;;;;;5020667;28;20197;-68
2023/12/13 08:50:58;;;;;;;7.23;6.93;;;8.70;1.00;;;;;;5023199;28;20184;-68
2023/12/13 08:53:25;;;;;;;7.40;7.10;;;8.70;1.00;;;;;;5026888;28;20218;-68
2023/12/13 08:55:52;;;;;;;7.33;7.03;;;8.80;1.00;;;;;;5028554;28;20207;-68
2023/12/13 08:58:19;;;;;;;7.40;7.10;;;9.00;1.00;;;;;;5026842;28;20315;-68
2023/12/13 09:00:46;;;;;;;8.00;7.60;;;9.10;1.00;;;;;;5022865;28;20249;-70
2023/12/13 09:03:14;;;;;;;8.30;7.90;;;9.10;1.00;;;;;;5007918;28;20314;-68
2023/12/13 09:05:41;;;;;;;8.70;8.30;;;9.20;1.00;;;;;;5023824;28;20629;-68
2023/12/13 09:08:08;;;;;;;9.00;8.60;;;9.10;1.00;;;;;;5035448;28;20189;-72
2023/12/13 09:10:35;;;;;;;9.13;8.73;;;9.10;1.00;;;;;;5024921;28;20204;-73
2023/12/13 09:13:02;;;;;;;9.20;8.80;;;9.10;1.00;;;;;;5021138;28;21000;-74
2023/12/13 09:15:33;;;;;;;8.80;8.40;;;9.10;1.00;;;;;;5020580;28;20193;-75
2023/12/13 09:18:00;;;;;;;8.57;8.17;;;9.10;1.00;;;;;;5006799;28;20208;-72
2023/12/13 09:20:27;;;;;;;8.83;8.43;;;9.20;1.00;;;;;;5009332;28;20205;-74
2023/12/13 09:22:55;;;;;;;9.10;8.70;;;9.50;1.00;;;;;;5021838;28;20204;-72
2023/12/13 09:25:22;;;;;;;9.00;8.60;;;9.40;1.00;;;;;;5025639;28;20728;-73
2023/12/13 09:27:49;;;;;;;9.03;8.63;;;9.50;1.00;;;;;;5020063;28;20193;-72
2023/12/13 09:30:16;;;;;;;9.30;8.90;;;9.50;1.00;;;;;;5026887;28;20207;-73
2023/12/13 09:32:44;;;;;;;9.87;9.37;;;9.70;1.00;;;;;;5025704;28;20192;-67
2023/12/13 09:35:17;;;;;;;9.93;9.43;;;9.80;1.00;;;;;;5027924;28;20196;-67
2023/12/13 09:37:44;;;;;;;10.40;9.90;;;9.90;1.00;;;;;;5026060;28;20241;-68
2023/12/13 09:40:16;;;;;;;10.10;9.60;;;9.80;1.00;;;;;;5027176;28;20603;-66
2023/12/13 09:42:45;;;;;;;10.63;10.13;;;10.00;1.00;;;;;;5021375;28;20207;-67
2023/12/13 09:45:19;;;;;;;10.70;10.20;;;10.10;1.00;;;;;;5028215;28;20185;-67
2023/12/13 09:47:52;;;;;;;10.70;10.20;;;10.00;1.00;;;;;;5009790;28;20698;-67
2023/12/13 09:50:22;;;;;;;10.60;10.10;;;10.20;1.00;;;;;;5022208;28;20205;-67
2023/12/13 09:52:50;;;;;;;10.30;9.80;;;10.60;1.00;;;;;;5021418;28;20685;-66
2023/12/13 09:55:17;;;;;;;10.90;10.40;;;11.50;1.00;;;;;;5026482;28;20200;-67
2023/12/13 09:57:45;;;;;;;11.60;11.02;;;13.40;1.00;;;;;;5002130;28;20269;-67
2023/12/13 10:00:12;;;;;;;13.05;12.45;;;14.10;99.90;;;;;;5007791;28;20299;-67
2023/12/13 10:02:40;;;;;;;13.20;12.50;;;12.80;99.90;;;;;;5035395;28;20258;-68
2023/12/13 10:05:14;;;;;;;14.00;13.30;;;12.10;99.90;;;;;;5018700;28;20213;-67
2023/12/13 10:07:41;;;;;;;14.10;13.40;;;12.10;99.90;;;;;;5031178;28;20206;-67
2023/12/13 10:10:09;;;;;;;14.13;13.43;;;12.30;99.90;;;;;;5017659;28;20188;-67
2023/12/13 10:12:39;;;;;;;14.20;13.50;;;12.50;99.90;;;;;;5033424;28;20590;-66
2023/12/13 10:15:11;;;;;;;14.30;13.60;;;12.30;99.90;;;;;;5019287;28;20517;-66
2023/12/13 10:17:40;;;;;;;14.20;13.50;;;11.60;99.90;;;;;;5009282;28;20554;-70
2023/12/13 10:20:10;;;;;;;14.20;13.50;;;11.30;99.90;;;;;;5029699;28;20624;-75
2023/12/13 10:22:38;;;;;;;13.80;13.10;;;11.10;99.90;;;;;;5042396;28;20311;-73
2023/12/13 10:25:07;;;;;;;13.67;12.97;;;11.10;99.90;;;;;;5023986;28;20246;-72
2023/12/13 10:27:34;;;;;;;13.90;13.20;;;11.00;99.90;;;;;;5018206;28;20197;-73
2023/12/13 10:30:02;;;;;;;13.40;12.70;;;10.90;99.90;;;;;;5026471;28;20247;-72
2023/12/13 10:32:30;;;;;;;13.10;12.50;;;10.70;99.90;;;;;;5029165;28;20204;-74
2023/12/13 10:34:57;;;;;;;12.80;12.20;;;10.40;99.90;;;;;;5032156;28;20246;-72
2023/12/13 10:37:27;;;;;;;12.57;11.97;;;10.30;99.90;;;;;;5031621;28;20204;-72
2023/12/13 10:39:59;;;;;;;11.57;11.07;;;10.10;99.90;;;;;;5018866;28;20200;-72
2023/12/13 10:42:26;;;;;;;11.13;10.63;;;10.20;99.90;;;;;;5024174;28;20715;-72
2023/12/13 10:44:53;;;;;;;10.70;10.20;;;10.20;99.90;;;;;;5030967;28;20207;-72
2023/12/13 10:47:25;;;;;;;10.67;10.17;;;10.50;99.90;;;;;;5023846;28;20192;-71
2023/12/13 10:49:55;;;;;;;10.50;10.00;;;10.70;99.90;;;;;;5029047;28;20892;-72
2023/12/13 10:52:26;;;;;;;11.00;10.50;;;10.80;99.90;;;;;;5022995;28;20198;-72
2023/12/13 10:54:53;;;;;;;10.80;10.30;;;10.80;99.90;;;;;;5029976;28;20216;-73
2023/12/13 10:57:21;;;;;;;10.77;10.27;;;10.80;99.90;;;;;;5030682;28;20212;-66
2023/12/13 10:59:49;;;;;;;11.30;10.80;;;10.70;99.90;;;;;;5036350;28;20651;-72
2023/12/13 11:02:18;;;;;;;11.00;10.50;;;10.60;99.90;;;;;;5033145;28;20184;-72
2023/12/13 11:04:47;;;;;;;10.97;10.47;;;10.80;99.90;;;;;;5015369;28;20262;-72
2023/12/13 11:07:14;;;;;;;11.00;10.50;;;10.90;99.90;;;;;;5041146;28;20180;-70
2023/12/13 11:09:50;;;;;;;10.80;10.30;;;10.90;99.90;;;;;;5030178;28;20266;-75
2023/12/13 11:12:21;;;;;;;10.53;10.03;;;10.90;99.90;;;;;;5029102;28;20582;-72
2023/12/13 11:14:50;;;;;;;10.97;10.47;;;11.00;99.90;;;;;;5028809;28;20208;-73
2023/12/13 11:17:21;;;;;;;10.90;10.40;;;10.90;99.90;;;;;;5021489;28;20692;-72
2023/12/13 11:19:52;;;;;;;11.37;10.87;;;11.00;99.90;;;;;;5030994;28;20289;-72
2023/12/13 11:22:23;;;;;;;10.80;10.30;;;10.80;99.90;;;;;;5028030;28;20510;-72
2023/12/13 11:25:03;;;;;;;11.03;10.53;;;11.10;99.90;;;;;;5030816;28;20980;-72
2023/12/13 11:27:31;;;;;;;11.30;10.80;;;11.60;99.90;;;;;;5029955;28;20746;-67
2023/12/13 11:30:15;;;;;;;11.40;10.90;;;11.60;99.90;;;;;;5029757;28;20580;-67
2023/12/13 11:32:43;;;;;;;11.70;11.10;;;11.60;99.90;;;;;;5024572;28;20587;-67
2023/12/13 11:35:19;;;;;;;12.10;11.50;;;11.50;99.90;;;;;;5028620;28;20572;-67
2023/12/13 11:37:51;;;;;;;11.90;11.30;;;11.20;99.90;;;;;;5021933;28;20212;-66
2023/12/13 11:40:18;;;;;;;11.77;11.17;;;11.20;99.90;;;;;;5026196;28;20295;-66
2023/12/13 11:42:47;;;;;;;11.77;11.17;;;11.10;99.90;;;;;;5027110;28;20208;-67
2023/12/13 11:45:14;;;;;;;11.67;11.07;;;11.20;99.90;;;;;;5027284;28;20189;-68
2023/12/13 11:47:49;;;;;;;11.50;11.00;;;11.30;99.90;;;;;;5011783;28;20208;-68
2023/12/13 11:50:19;;;;;;;11.73;11.13;;;11.50;99.90;;;;;;5030172;28;20258;-67
2023/12/13 11:52:47;;;;;;;11.60;11.10;;;11.60;99.90;;;;;;5015452;28;20219;-67
2023/12/13 11:55:17;;;;;;;11.70;11.10;;;11.50;99.90;;;;;;5028560;28;20203;-67
2023/12/13 11:57:49;;;;;;;11.50;11.00;;;11.40;99.90;;;;;;5024834;28;20703;-66
2023/12/13 12:00:20;;;;;;;11.67;11.10;;;11.30;99.90;;;;;;5028558;28;20203;-66
2023/12/13 12:02:53;;;;;;;11.40;10.90;;;11.20;99.90;;;;;;5027904;28;20196;-67
2023/12/13 12:05:22;;;;;;;11.70;11.10;;;11.20;99.90;;;;;;5029539;28;20652;-67
2023/12/13 12:07:59;;;;;;;11.83;11.23;;;11.10;99.90;;;;;;5011360;28;20193;-72
2023/12/13 12:10:26;;;;;;;11.90;11.30;;;11.00;99.90;;;;;;5030414;28;20302;-73
2023/12/13 12:12:54;;;;;;;12.00;11.40;;;10.70;99.90;;;;;;5028500;28;20323;-72
2023/12/13 12:15:21;;;;;;;11.70;11.10;;;10.80;99.90;;;;;;5012542;28;20220;-72
2023/12/13 12:17:48;;;;;;;11.57;11.03;;;10.80;99.90;;;;;;5011384;28;20196;-74
2023/12/13 12:20:16;;;;;;;11.43;10.93;;;10.90;99.90;;;;;;5030066;28;20216;-72
2023/12/13 12:22:46;;;;;;;11.63;11.07;;;11.10;99.90;;;;;;5025241;28;20295;-72
2023/12/13 12:25:13;;;;;;;12.00;11.40;;;11.10;99.90;;;;;;5030008;28;20193;-73
2023/12/13 12:27:49;;;;;;;11.70;11.10;;;11.20;99.90;;;;;;5029568;28;20197;-70
2023/12/13 12:30:17;;;;;;;12.23;11.63;;;11.20;99.90;;;;;;5019933;28;20640;-72
2023/12/13 12:32:45;;;;;;;11.97;11.37;;;11.20;99.90;;;;;;5041048;28;20920;-72
2023/12/13 12:35:12;;;;;;;11.80;11.20;;;11.20;99.90;;;;;;5029670;28;20204;-72
2023/12/13 12:37:40;;;;;;;11.95;11.35;;;11.30;99.90;;;;;;5040833;28;20194;-67
2023/12/13 12:40:08;;;;;;;11.70;11.10;;;11.70;99.90;;;;;;5022622;28;20195;-69
2023/12/13 12:42:35;;;;;;;11.50;11.00;;;12.40;99.90;;;;;;5044492;28;20199;-67
2023/12/13 12:45:03;;;;;;;11.75;11.18;;;12.70;99.90;;;;;;5037179;28;20287;-67
2023/12/13 12:47:30;;;;;;;11.93;11.32;;;12.50;99.90;;;;;;5030251;28;20246;-67
2023/12/13 12:49:58;;;;;;;12.10;11.50;;;12.60;99.90;;;;;;5030446;28;20212;-67
2023/12/13 12:52:25;;;;;;;12.20;11.60;;;12.30;99.90;;;;;;5036658;28;20605;-67
2023/12/13 12:54:52;;;;;;;12.23;11.63;;;12.30;99.90;;;;;;5034695;28;20204;-68
2023/12/13 12:57:19;;;;;;;12.18;11.57;;;12.10;99.90;;;;;;5038436;28;20286;-67
2023/12/13 12:59:50;;;;;;;12.25;11.65;;;12.10;99.90;;;;;;5028545;28;20250;-67